Time;durP1;ratioP1;P1;durP2;ratioP2;P2;SDS_P1;SDS_P2;PMS_P1;PMS_P2;Temp;Humidity;BMP_temperature;BMP_pressure;BME280_temperature;BME280_humidity;BME280_pressure;Samples;Min_cycle;Max_cycle;Signal;HPM_P1;HPM_P2
2021/06/09 00:01:57;;;;;;;13.32;12.13;;;;;;;;;;5056441;28;20263;-85
2021/06/09 00:04:26;;;;;;;15.48;13.80;;;;;;;;;;5056389;28;20218;-84
2021/06/09 00:06:52;;;;;;;14.70;13.27;;;;;;;;;;5056656;28;20186;-85
2021/06/09 00:09:19;;;;;;;15.20;13.60;;;;;;;;;;5056507;28;20201;-84
2021/06/09 00:11:47;;;;;;;16.25;14.60;;;;;;;;;;5056905;28;20178;-84
2021/06/09 00:14:16;;;;;;;15.98;13.75;;;;;;;;;;5056108;28;20236;-84
2021/06/09 00:16:44;;;;;;;15.32;13.75;;;;;;;;;;5056030;28;20340;-84
2021/06/09 00:19:13;;;;;;;19.45;15.65;;;;;;;;;;5056235;28;20255;-85
2021/06/09 00:21:46;;;;;;;14.80;13.40;;;;;;;;;;5056228;28;20190;-84
2021/06/09 00:24:14;;;;;;;16.15;12.77;;;;;;;;;;5056195;28;20229;-85
2021/06/09 00:26:41;;;;;;;15.13;13.05;;;;;;;;;;5056703;28;20305;-84
2021/06/09 00:29:08;;;;;;;16.65;13.98;;;;;;;;;;5056159;28;20264;-85
2021/06/09 00:31:35;;;;;;;15.00;13.43;;;;;;;;;;5056238;28;20268;-84
2021/06/09 00:34:02;;;;;;;16.88;13.73;;;;;;;;;;5056992;28;20236;-85
2021/06/09 00:36:29;;;;;;;17.05;14.50;;;;;;;;;;5055978;28;20551;-84
2021/06/09 00:38:58;;;;;;;16.63;14.60;;;;;;;;;;5056034;28;20213;-84
2021/06/09 00:41:24;;;;;;;13.63;12.40;;;;;;;;;;5055766;28;20186;-84
2021/06/09 00:43:52;;;;;;;16.73;14.95;;;;;;;;;;5055908;28;20240;-84
2021/06/09 00:46:19;;;;;;;13.95;12.65;;;;;;;;;;5056213;28;20192;-84
2021/06/09 00:48:46;;;;;;;14.63;12.90;;;;;;;;;;5055785;28;20198;-83
2021/06/09 00:51:17;;;;;;;13.90;12.55;;;;;;;;;;5056426;28;20244;-84
2021/06/09 00:53:49;;;;;;;13.25;11.95;;;;;;;;;;5056119;28;20313;-85
2021/06/09 00:56:20;;;;;;;13.25;11.80;;;;;;;;;;5055695;28;20217;-84
2021/06/09 00:58:49;;;;;;;14.18;12.32;;;;;;;;;;5055743;28;20209;-84
2021/06/09 01:01:19;;;;;;;13.68;12.40;;;;;;;;;;5055725;28;20707;-84
2021/06/09 01:03:47;;;;;;;12.00;10.80;;;;;;;;;;5055381;28;20226;-84
2021/06/09 01:06:14;;;;;;;11.25;10.15;;;;;;;;;;5056062;28;20222;-84
2021/06/09 01:08:43;;;;;;;12.85;10.57;;;;;;;;;;5055875;28;20580;-85
2021/06/09 01:11:13;;;;;;;11.15;10.05;;;;;;;;;;5055971;28;20193;-84
2021/06/09 01:13:41;;;;;;;10.88;9.88;;;;;;;;;;5055474;28;20221;-85
2021/06/09 01:16:08;;;;;;;9.77;8.68;;;;;;;;;;5055350;28;20243;-84
2021/06/09 01:18:36;;;;;;;10.35;9.35;;;;;;;;;;5055977;28;20206;-84
2021/06/09 01:21:04;;;;;;;9.73;8.90;;;;;;;;;;5055224;28;20189;-83
2021/06/09 01:23:33;;;;;;;10.23;9.15;;;;;;;;;;5055484;28;20229;-85
2021/06/09 01:26:01;;;;;;;10.63;9.60;;;;;;;;;;5055517;28;20214;-85
2021/06/09 01:28:29;;;;;;;9.60;8.75;;;;;;;;;;5055924;28;20186;-84
2021/06/09 01:30:57;;;;;;;9.10;8.20;;;;;;;;;;5055312;28;20178;-84
2021/06/09 01:33:25;;;;;;;9.27;8.48;;;;;;;;;;5054944;28;21125;-84
2021/06/09 01:35:54;;;;;;;8.60;7.97;;;;;;;;;;5055566;28;20194;-85
2021/06/09 01:38:21;;;;;;;9.10;8.30;;;;;;;;;;5054469;28;20209;-85
2021/06/09 01:40:50;;;;;;;9.35;8.45;;;;;;;;;;5055261;28;20189;-84
2021/06/09 01:43:17;;;;;;;8.50;7.70;;;;;;;;;;5055188;28;20261;-84
2021/06/09 01:45:45;;;;;;;8.95;8.15;;;;;;;;;;5054774;28;20246;-84
2021/06/09 01:48:12;;;;;;;9.32;8.57;;;;;;;;;;5055894;28;20190;-84
2021/06/09 01:50:40;;;;;;;9.70;8.80;;;;;;;;;;5055040;28;20183;-84
2021/06/09 01:53:08;;;;;;;7.63;6.95;;;;;;;;;;5055138;28;20206;-84
2021/06/09 01:55:38;;;;;;;8.60;7.90;;;;;;;;;;5054415;28;20221;-84
2021/06/09 01:58:10;;;;;;;10.07;9.15;;;;;;;;;;5054824;28;20225;-84
2021/06/09 02:00:40;;;;;;;9.57;8.63;;;;;;;;;;5055940;28;20202;-84
2021/06/09 02:03:07;;;;;;;9.20;8.30;;;;;;;;;;5058664;28;20243;-84
2021/06/09 02:05:36;;;;;;;9.82;8.82;;;;;;;;;;5058038;28;20226;-84
2021/06/09 02:08:07;;;;;;;9.50;8.68;;;;;;;;;;5057970;28;20564;-85
2021/06/09 02:10:34;;;;;;;9.48;8.45;;;;;;;;;;5058164;28;20193;-84
2021/06/09 02:13:06;;;;;;;8.25;7.60;;;;;;;;;;5058447;28;20185;-85
2021/06/09 02:15:33;;;;;;;7.97;7.32;;;;;;;;;;5058331;28;20222;-84
2021/06/09 02:18:09;;;;;;;8.70;7.05;;;;;;;;;;5058762;28;20202;-84
2021/06/09 02:20:39;;;;;;;8.77;8.07;;;;;;;;;;5061726;28;20205;-84
2021/06/09 02:23:10;;;;;;;7.90;7.20;;;;;;;;;;5063587;28;20196;-84
2021/06/09 02:25:37;;;;;;;7.97;7.28;;;;;;;;;;5065174;28;20246;-84
2021/06/09 02:28:07;;;;;;;8.13;7.53;;;;;;;;;;5068341;28;20292;-84
2021/06/09 02:30:34;;;;;;;7.55;6.88;;;;;;;;;;5071764;28;20194;-84
2021/06/09 02:33:02;;;;;;;9.52;8.73;;;;;;;;;;5071429;28;20202;-84
2021/06/09 02:35:29;;;;;;;8.10;7.40;;;;;;;;;;5070871;28;20198;-84
2021/06/09 02:37:56;;;;;;;7.97;7.22;;;;;;;;;;5070906;28;20218;-84
2021/06/09 02:40:24;;;;;;;8.68;7.90;;;;;;;;;;5070878;28;20308;-84
2021/06/09 02:42:51;;;;;;;8.05;7.45;;;;;;;;;;5071562;28;20209;-83
2021/06/09 02:45:21;;;;;;;9.40;8.70;;;;;;;;;;5070879;28;20837;-83
2021/06/09 02:47:51;;;;;;;9.57;8.68;;;;;;;;;;5071236;28;20201;-84
2021/06/09 02:50:19;;;;;;;9.27;8.55;;;;;;;;;;5070670;28;20264;-83
2021/06/09 02:53:02;;;;;;;10.15;8.35;;;;;;;;;;5071087;28;20214;-84
2021/06/09 02:55:44;;;;;;;9.18;8.38;;;;;;;;;;5071178;28;20229;-84
2021/06/09 02:58:16;;;;;;;11.10;10.00;;;;;;;;;;5071190;28;20237;-84
2021/06/09 03:00:56;;;;;;;10.52;9.55;;;;;;;;;;5070587;28;20208;-84
2021/06/09 03:03:30;;;;;;;9.77;8.88;;;;;;;;;;5063625;28;20194;-84
2021/06/09 03:06:01;;;;;;;10.10;9.20;;;;;;;;;;5058789;28;20192;-84
2021/06/09 03:08:35;;;;;;;10.57;9.57;;;;;;;;;;5062691;28;20721;-85
2021/06/09 03:11:09;;;;;;;13.18;11.88;;;;;;;;;;5049856;28;20188;-83
2021/06/09 03:13:53;;;;;;;13.57;12.23;;;;;;;;;;5041830;28;20424;-83
2021/06/09 03:16:27;;;;;;;12.82;11.57;;;;;;;;;;5041838;28;20205;-84
2021/06/09 03:18:55;;;;;;;13.48;11.93;;;;;;;;;;5040934;28;20213;-84
2021/06/09 03:21:28;;;;;;;14.05;12.65;;;;;;;;;;5040791;28;20192;-85
2021/06/09 03:24:07;;;;;;;12.85;11.65;;;;;;;;;;5042460;28;20225;-84
2021/06/09 03:26:47;;;;;;;11.80;10.55;;;;;;;;;;5042084;28;20186;-84
2021/06/09 03:29:26;;;;;;;11.75;10.55;;;;;;;;;;5034085;28;20221;-84
2021/06/09 03:31:57;;;;;;;10.40;9.40;;;;;;;;;;5040306;28;20675;-84
2021/06/09 03:34:28;;;;;;;9.57;8.65;;;;;;;;;;5043832;28;20218;-85
2021/06/09 03:36:58;;;;;;;10.10;9.20;;;;;;;;;;5032957;28;20661;-84
2021/06/09 03:39:26;;;;;;;9.75;8.95;;;;;;;;;;5043551;28;20238;-84
2021/06/09 03:41:56;;;;;;;9.95;9.05;;;;;;;;;;5039821;28;20193;-84
2021/06/09 03:44:33;;;;;;;10.60;9.02;;;;;;;;;;5035198;28;20210;-85
2021/06/09 03:47:01;;;;;;;9.65;8.77;;;;;;;;;;5046132;28;20655;-85
2021/06/09 03:49:30;;;;;;;12.10;10.90;;;;;;;;;;5038363;28;20199;-85
2021/06/09 03:52:00;;;;;;;9.23;8.45;;;;;;;;;;5040630;28;20201;-85
2021/06/09 03:54:29;;;;;;;8.57;7.82;;;;;;;;;;5034723;28;20226;-85
2021/06/09 03:56:58;;;;;;;9.48;8.68;;;;;;;;;;5044829;28;20229;-85
2021/06/09 03:59:26;;;;;;;9.95;8.98;;;;;;;;;;5035766;28;20221;-85
2021/06/09 04:02:06;;;;;;;9.98;9.13;;;;;;;;;;5048396;28;20566;-84
2021/06/09 04:04:33;;;;;;;8.40;7.60;;;;;;;;;;5053099;28;20224;-84
2021/06/09 04:07:01;;;;;;;9.98;8.98;;;;;;;;;;5036308;28;20194;-85
2021/06/09 04:09:28;;;;;;;8.40;7.60;;;;;;;;;;5046292;28;20201;-84
2021/06/09 04:12:00;;;;;;;9.52;8.73;;;;;;;;;;5043160;28;20193;-86
2021/06/09 04:14:33;;;;;;;10.75;9.65;;;;;;;;;;5037936;28;20225;-85
2021/06/09 04:17:05;;;;;;;11.48;10.27;;;;;;;;;;5049237;28;20194;-85
2021/06/09 04:19:34;;;;;;;11.15;10.05;;;;;;;;;;5039546;28;20210;-84
2021/06/09 04:22:04;;;;;;;11.68;10.63;;;;;;;;;;5041282;28;20567;-84
2021/06/09 04:24:31;;;;;;;12.07;10.32;;;;;;;;;;5047362;28;20214;-85
2021/06/09 04:27:00;;;;;;;14.70;11.77;;;;;;;;;;5035298;28;20191;-84
2021/06/09 04:29:29;;;;;;;12.90;11.70;;;;;;;;;;5045823;28;20191;-84
2021/06/09 04:31:57;;;;;;;13.20;11.77;;;;;;;;;;5042443;28;20574;-84
2021/06/09 04:34:25;;;;;;;11.10;9.90;;;;;;;;;;5037391;28;20218;-84
2021/06/09 04:36:53;;;;;;;11.65;10.55;;;;;;;;;;5047365;28;20670;-84
2021/06/09 04:39:22;;;;;;;12.60;11.25;;;;;;;;;;5049581;28;20217;-84
2021/06/09 04:42:03;;;;;;;11.82;10.73;;;;;;;;;;5051918;28;20201;-85
2021/06/09 04:44:32;;;;;;;13.45;10.32;;;;;;;;;;5043264;28;20220;-85
2021/06/09 04:47:00;;;;;;;10.98;9.98;;;;;;;;;;5041369;28;20183;-85
2021/06/09 04:49:33;;;;;;;11.68;10.48;;;;;;;;;;5045011;28;20201;-86
2021/06/09 04:52:03;;;;;;;10.73;9.73;;;;;;;;;;5044456;28;20194;-86
2021/06/09 04:54:31;;;;;;;10.85;9.85;;;;;;;;;;5047422;28;20296;-84
2021/06/09 04:56:58;;;;;;;11.65;10.57;;;;;;;;;;5041948;28;20846;-85
2021/06/09 04:59:26;;;;;;;13.00;11.85;;;;;;;;;;5042124;28;20308;-85
2021/06/09 05:01:54;;;;;;;13.20;11.90;;;;;;;;;;5040075;28;20618;-85
2021/06/09 05:04:21;;;;;;;14.60;13.20;;;;;;;;;;5047114;28;20218;-85
2021/06/09 05:06:49;;;;;;;16.67;15.10;;;;;;;;;;5042250;28;20645;-85
2021/06/09 05:09:16;;;;;;;14.77;13.27;;;;;;;;;;5046738;28;20202;-85
2021/06/09 05:11:50;;;;;;;14.27;12.38;;;;;;;;;;5047457;28;20198;-87
2021/06/09 05:14:22;;;;;;;15.20;13.60;;;;;;;;;;5040753;28;20217;-86
2021/06/09 05:16:50;;;;;;;14.02;12.73;;;;;;;;;;5035166;28;20204;-86
2021/06/09 05:19:20;;;;;;;15.43;14.02;;;;;;;;;;5047804;28;20301;-86
2021/06/09 05:21:51;;;;;;;14.10;12.68;;;;;;;;;;5038713;28;20250;-86
2021/06/09 05:25:08;;;;;;;14.57;13.18;;;;;;;;;;5039334;28;20324;-86
2021/06/09 05:27:38;;;;;;;16.35;13.85;;;;;;;;;;5034434;28;20205;-86
2021/06/09 05:30:07;;;;;;;14.32;12.77;;;;;;;;;;5049398;28;20510;-85
2021/06/09 05:32:36;;;;;;;17.63;15.32;;;;;;;;;;5050678;28;20652;-86
2021/06/09 05:35:04;;;;;;;17.65;15.98;;;;;;;;;;5049864;28;20222;-86
2021/06/09 05:37:33;;;;;;;15.70;13.85;;;;;;;;;;5050861;28;20587;-85
2021/06/09 05:40:06;;;;;;;18.45;16.75;;;;;;;;;;5053076;28;20740;-85
2021/06/09 05:42:35;;;;;;;17.92;16.00;;;;;;;;;;5054320;28;20201;-84
2021/06/09 05:45:02;;;;;;;20.08;17.98;;;;;;;;;;5054533;28;20225;-85
2021/06/09 05:47:30;;;;;;;21.52;17.27;;;;;;;;;;5054796;28;20186;-84
2021/06/09 05:50:12;;;;;;;18.88;16.55;;;;;;;;;;5054556;28;20202;-85
2021/06/09 05:52:40;;;;;;;17.77;15.98;;;;;;;;;;5054011;28;20178;-85
2021/06/09 05:55:15;;;;;;;18.02;16.15;;;;;;;;;;5053900;28;20545;-84
2021/06/09 05:57:43;;;;;;;18.45;16.35;;;;;;;;;;5053860;28;20274;-85
2021/06/09 06:00:12;;;;;;;18.95;16.98;;;;;;;;;;5053614;28;20213;-84
2021/06/09 06:02:39;;;;;;;19.02;17.05;;;;;;;;;;5053391;28;20187;-84
2021/06/09 06:05:08;;;;;;;16.77;15.07;;;;;;;;;;5053698;28;20804;-84
2021/06/09 06:07:36;;;;;;;21.08;18.77;;;;;;;;;;5039845;28;20645;-85
2021/06/09 06:10:07;;;;;;;19.33;17.35;;;;;;;;;;5033462;28;20183;-85
2021/06/09 06:12:37;;;;;;;19.60;17.33;;;;;;;;;;5033846;28;20191;-86
2021/06/09 06:15:06;;;;;;;19.98;17.85;;;;;;;;;;5033798;28;20592;-85
2021/06/09 06:17:37;;;;;;;20.05;18.13;;;;;;;;;;5033575;28;20199;-85
2021/06/09 06:20:05;;;;;;;20.65;18.40;;;;;;;;;;5033411;28;20247;-85
2021/06/09 06:22:33;;;;;;;20.42;18.23;;;;;;;;;;5033412;28;20194;-85
2021/06/09 06:25:04;;;;;;;19.00;17.00;;;;;;;;;;5036002;28;20220;-84
2021/06/09 06:27:31;;;;;;;20.50;18.38;;;;;;;;;;5053990;28;20628;-84
2021/06/09 06:29:58;;;;;;;20.67;18.67;;;;;;;;;;5052841;28;20643;-84
2021/06/09 06:32:25;;;;;;;18.70;16.83;;;;;;;;;;5053202;28;20181;-86
2021/06/09 06:34:53;;;;;;;17.85;16.02;;;;;;;;;;5052998;28;20218;-84
2021/06/09 06:37:22;;;;;;;18.17;16.27;;;;;;;;;;5053130;28;20655;-85
2021/06/09 06:39:49;;;;;;;19.58;17.58;;;;;;;;;;5053477;28;20209;-85
2021/06/09 06:42:18;;;;;;;18.02;16.23;;;;;;;;;;5053292;28;20181;-85
2021/06/09 06:44:46;;;;;;;18.20;16.30;;;;;;;;;;5053200;28;20286;-84
2021/06/09 06:47:14;;;;;;;17.08;15.40;;;;;;;;;;5052930;28;20269;-85
2021/06/09 06:49:44;;;;;;;15.30;13.60;;;;;;;;;;5052600;28;20251;-84
2021/06/09 06:52:11;;;;;;;15.73;14.13;;;;;;;;;;5052220;28;20186;-85
2021/06/09 06:54:38;;;;;;;16.90;15.27;;;;;;;;;;5052216;28;20602;-84
2021/06/09 06:57:05;;;;;;;15.77;14.13;;;;;;;;;;5052296;28;20316;-85
2021/06/09 06:59:34;;;;;;;15.45;14.10;;;;;;;;;;5052225;28;20266;-84
2021/06/09 07:02:05;;;;;;;15.35;13.85;;;;;;;;;;5052367;28;20209;-84
2021/06/09 07:04:32;;;;;;;16.13;14.63;;;;;;;;;;5051889;28;20684;-84
2021/06/09 07:07:00;;;;;;;17.17;13.95;;;;;;;;;;5052098;28;20206;-85
2021/06/09 07:09:27;;;;;;;15.10;13.55;;;;;;;;;;5052510;28;20233;-84
2021/06/09 07:11:54;;;;;;;14.65;13.30;;;;;;;;;;5051640;28;20182;-84
2021/06/09 07:14:23;;;;;;;17.23;15.43;;;;;;;;;;5052725;28;20222;-85
2021/06/09 07:16:52;;;;;;;17.10;15.50;;;;;;;;;;5052902;28;20644;-85
2021/06/09 07:19:19;;;;;;;15.00;13.60;;;;;;;;;;5052029;28;20211;-85
2021/06/09 07:21:46;;;;;;;14.13;12.82;;;;;;;;;;5052390;28;20729;-85
2021/06/09 07:24:13;;;;;;;15.93;14.05;;;;;;;;;;5052594;28;20757;-84
2021/06/09 07:26:44;;;;;;;15.50;13.88;;;;;;;;;;5052538;28;20173;-84
2021/06/09 07:29:11;;;;;;;15.63;14.18;;;;;;;;;;5052705;28;20232;-83
2021/06/09 07:31:40;;;;;;;16.70;14.68;;;;;;;;;;5052651;28;20277;-84
2021/06/09 07:34:10;;;;;;;16.65;15.15;;;;;;;;;;5052551;28;20243;-84
2021/06/09 07:36:43;;;;;;;14.73;13.32;;;;;;;;;;5054395;28;20205;-84
2021/06/09 07:39:16;;;;;;;16.80;15.18;;;;;;;;;;5056092;28;20199;-86
2021/06/09 07:41:44;;;;;;;15.10;13.60;;;;;;;;;;5056283;28;20186;-85
2021/06/09 07:44:12;;;;;;;15.95;14.25;;;;;;;;;;5055305;28;20228;-85
2021/06/09 07:46:39;;;;;;;16.00;14.45;;;;;;;;;;5055124;28;20185;-85
2021/06/09 07:49:10;;;;;;;15.13;13.73;;;;;;;;;;5055147;28;20563;-84
2021/06/09 07:51:38;;;;;;;15.23;13.73;;;;;;;;;;5054722;28;20563;-84
2021/06/09 07:54:07;;;;;;;16.00;14.60;;;;;;;;;;5055584;28;20220;-86
2021/06/09 07:56:36;;;;;;;14.32;12.95;;;;;;;;;;5055022;28;20225;-85
2021/06/09 07:59:08;;;;;;;14.25;12.70;;;;;;;;;;5055610;28;20204;-85
2021/06/09 08:01:35;;;;;;;14.23;12.73;;;;;;;;;;5054935;28;20625;-85
2021/06/09 08:04:03;;;;;;;13.13;11.88;;;;;;;;;;5055030;28;20222;-84
2021/06/09 08:06:32;;;;;;;14.45;13.05;;;;;;;;;;5055617;28;20695;-85
2021/06/09 08:09:00;;;;;;;13.93;12.68;;;;;;;;;;5059623;28;20262;-85
2021/06/09 08:11:28;;;;;;;12.80;11.30;;;;;;;;;;5059269;28;20216;-86
2021/06/09 08:13:55;;;;;;;12.23;11.18;;;;;;;;;;5060289;28;20806;-85
2021/06/09 08:16:22;;;;;;;11.98;11.07;;;;;;;;;;5059784;28;20232;-85
2021/06/09 08:18:49;;;;;;;14.27;12.98;;;;;;;;;;5059134;28;20261;-86
2021/06/09 08:21:20;;;;;;;13.15;12.05;;;;;;;;;;5061190;28;20214;-86
2021/06/09 08:23:52;;;;;;;13.57;12.38;;;;;;;;;;5059100;28;20221;-86
2021/06/09 08:26:23;;;;;;;14.40;13.27;;;;;;;;;;5059317;28;20715;-86
2021/06/09 08:28:52;;;;;;;13.20;12.00;;;;;;;;;;5060633;28;20233;-86
2021/06/09 08:31:25;;;;;;;13.68;12.45;;;;;;;;;;5058675;28;20676;-85
2021/06/09 08:33:55;;;;;;;12.48;11.35;;;;;;;;;;5058286;28;20221;-85
2021/06/09 08:36:23;;;;;;;12.32;11.25;;;;;;;;;;5055980;28;20212;-85
2021/06/09 08:38:55;;;;;;;12.63;11.52;;;;;;;;;;5054815;28;20222;-85
2021/06/09 08:41:24;;;;;;;11.88;10.88;;;;;;;;;;5052689;28;20214;-85
2021/06/09 08:43:51;;;;;;;10.82;9.73;;;;;;;;;;5053173;28;20267;-85
2021/06/09 08:46:19;;;;;;;13.27;12.07;;;;;;;;;;5053309;28;20210;-85
2021/06/09 08:48:47;;;;;;;11.57;10.68;;;;;;;;;;5052590;28;20202;-86
2021/06/09 08:51:18;;;;;;;11.45;10.55;;;;;;;;;;5052767;28;20266;-86
2021/06/09 08:53:47;;;;;;;12.32;11.32;;;;;;;;;;5052873;28;20291;-85
2021/06/09 08:56:17;;;;;;;11.93;10.82;;;;;;;;;;5052633;28;20189;-85
2021/06/09 08:58:44;;;;;;;12.88;11.88;;;;;;;;;;5053012;28;20181;-86
2021/06/09 09:01:13;;;;;;;12.90;11.80;;;;;;;;;;5053923;28;20209;-86
2021/06/09 09:03:43;;;;;;;10.75;9.85;;;;;;;;;;5053769;28;20402;-87
2021/06/09 09:06:11;;;;;;;11.35;10.25;;;;;;;;;;5053973;28;20248;-86
2021/06/09 09:08:38;;;;;;;11.55;10.57;;;;;;;;;;5054352;28;20201;-85
2021/06/09 09:11:05;;;;;;;11.50;10.50;;;;;;;;;;5054790;28;20194;-85
2021/06/09 09:13:35;;;;;;;10.65;9.73;;;;;;;;;;5054826;28;20229;-86
2021/06/09 09:16:02;;;;;;;12.27;11.15;;;;;;;;;;5054973;28;20206;-85
2021/06/09 09:18:41;;;;;;;14.32;13.02;;;;;;;;;;5053997;28;20201;-85
2021/06/09 09:21:09;;;;;;;12.88;11.88;;;;;;;;;;5053564;28;20233;-85
2021/06/09 09:23:36;;;;;;;11.98;10.80;;;;;;;;;;5053243;28;20219;-85
2021/06/09 09:26:26;;;;;;;10.18;9.27;;;;;;;;;;5053749;28;20201;-85
2021/06/09 09:29:10;;;;;;;10.07;9.18;;;;;;;;;;5055753;28;20209;-85
2021/06/09 09:31:54;;;;;;;10.73;9.82;;;;;;;;;;5057314;28;20201;-85
2021/06/09 09:34:48;;;;;;;11.52;10.52;;;;;;;;;;5056337;28;20217;-85
2021/06/09 09:37:19;;;;;;;10.32;9.35;;;;;;;;;;5011175;28;20216;-86
2021/06/09 09:39:48;;;;;;;12.50;11.25;;;;;;;;;;5059141;28;20277;-85
2021/06/09 09:42:34;;;;;;;9.60;8.80;;;;;;;;;;5058390;28;20229;-86
2021/06/09 09:45:27;;;;;;;12.43;11.40;;;;;;;;;;5056810;28;20225;-85
2021/06/09 09:48:09;;;;;;;10.15;9.32;;;;;;;;;;5054868;28;20224;-85
2021/06/09 09:50:38;;;;;;;11.13;10.25;;;;;;;;;;5054082;28;20194;-84
2021/06/09 09:53:18;;;;;;;11.57;10.57;;;;;;;;;;5054221;28;20460;-85
2021/06/09 09:56:18;;;;;;;12.02;10.82;;;;;;;;;;5054112;28;20201;-86
2021/06/09 09:58:53;;;;;;;12.20;11.13;;;;;;;;;;4971610;28;20240;-86
2021/06/09 10:01:23;;;;;;;9.20;8.43;;;;;;;;;;4972018;28;20653;-85
2021/06/09 10:03:53;;;;;;;10.15;9.40;;;;;;;;;;5013345;28;20655;-85
2021/06/09 10:06:30;;;;;;;10.02;9.23;;;;;;;;;;5052894;28;20206;-85
2021/06/09 10:09:00;;;;;;;10.65;9.75;;;;;;;;;;5052267;28;20197;-86
2021/06/09 10:11:28;;;;;;;9.93;8.98;;;;;;;;;;5053585;28;20209;-86
2021/06/09 10:13:55;;;;;;;9.43;8.63;;;;;;;;;;5051754;28;20214;-84
2021/06/09 10:16:35;;;;;;;8.93;8.23;;;;;;;;;;5051900;28;20209;-86
2021/06/09 10:19:06;;;;;;;8.93;8.10;;;;;;;;;;5051910;28;20296;-86
2021/06/09 10:21:40;;;;;;;8.00;7.43;;;;;;;;;;5051712;28;20220;-86
2021/06/09 10:24:09;;;;;;;7.90;7.30;;;;;;;;;;5051108;28;20220;-86
2021/06/09 10:26:36;;;;;;;7.93;7.28;;;;;;;;;;5051725;28;20194;-86
2021/06/09 10:29:09;;;;;;;7.50;6.90;;;;;;;;;;5051762;28;20189;-86
2021/06/09 10:31:41;;;;;;;8.30;7.65;;;;;;;;;;5051626;28;20216;-85
2021/06/09 10:34:08;;;;;;;8.05;7.25;;;;;;;;;;5055353;28;20224;-85
2021/06/09 10:36:42;;;;;;;6.95;6.40;;;;;;;;;;5053835;28;20710;-85
2021/06/09 10:39:09;;;;;;;7.70;7.10;;;;;;;;;;5052914;28;20255;-85
2021/06/09 10:41:41;;;;;;;7.13;6.43;;;;;;;;;;5052388;28;20257;-87
2021/06/09 10:44:09;;;;;;;7.05;6.47;;;;;;;;;;5052485;28;20302;-85
2021/06/09 10:46:42;;;;;;;7.45;6.80;;;;;;;;;;5052802;28;20201;-85
2021/06/09 10:49:10;;;;;;;7.80;7.10;;;;;;;;;;5054238;28;20220;-86
2021/06/09 10:51:38;;;;;;;7.03;6.43;;;;;;;;;;5054918;28;20206;-87
2021/06/09 10:54:10;;;;;;;7.35;6.85;;;;;;;;;;5055541;28;20300;-86
2021/06/09 10:56:38;;;;;;;6.95;6.25;;;;;;;;;;5055594;28;20229;-87
2021/06/09 10:59:05;;;;;;;6.95;6.38;;;;;;;;;;5056565;28;20200;-88
2021/06/09 11:01:32;;;;;;;7.45;6.57;;;;;;;;;;5054821;28;20604;-86
2021/06/09 11:04:01;;;;;;;6.57;6.07;;;;;;;;;;5055758;28;20778;-86
2021/06/09 11:06:37;;;;;;;6.72;6.22;;;;;;;;;;5056083;28;20287;-86
2021/06/09 11:09:20;;;;;;;7.85;6.45;;;;;;;;;;5056629;28;20555;-86
2021/06/09 11:12:09;;;;;;;7.28;6.68;;;;;;;;;;5059704;28;20651;-86
2021/06/09 11:14:45;;;;;;;6.95;6.45;;;;;;;;;;5058866;28;20625;-85
2021/06/09 11:17:12;;;;;;;7.00;6.40;;;;;;;;;;5055698;28;20373;-84
2021/06/09 11:19:45;;;;;;;6.25;5.75;;;;;;;;;;5056696;28;20678;-86
2021/06/09 11:22:21;;;;;;;6.70;6.10;;;;;;;;;;5056051;28;20312;-85
2021/06/09 11:25:12;;;;;;;7.40;6.75;;;;;;;;;;5056376;28;20648;-85
2021/06/09 11:27:51;;;;;;;7.32;6.72;;;;;;;;;;5056336;28;20668;-85
2021/06/09 11:30:49;;;;;;;8.32;7.30;;;;;;;;;;5057154;28;20201;-85
2021/06/09 11:33:42;;;;;;;7.78;7.10;;;;;;;;;;5056641;28;20194;-85
2021/06/09 11:36:27;;;;;;;7.30;6.68;;;;;;;;;;5056365;28;20205;-85
2021/06/09 11:38:57;;;;;;;7.22;6.63;;;;;;;;;;5056142;28;20205;-85
2021/06/09 11:41:28;;;;;;;7.75;7.15;;;;;;;;;;5056097;28;20595;-85
2021/06/09 11:43:57;;;;;;;7.32;6.72;;;;;;;;;;5056878;28;20225;-85
2021/06/09 11:46:26;;;;;;;6.85;6.30;;;;;;;;;;5056724;28;20208;-86
2021/06/09 11:48:56;;;;;;;6.40;5.88;;;;;;;;;;5055565;28;20209;-84
2021/06/09 11:51:34;;;;;;;6.10;5.60;;;;;;;;;;5055311;28;20208;-84
2021/06/09 11:54:05;;;;;;;6.47;5.95;;;;;;;;;;5056348;28;20592;-84
2021/06/09 11:56:40;;;;;;;5.65;5.25;;;;;;;;;;5056645;28;20221;-86
2021/06/09 11:59:09;;;;;;;7.82;5.35;;;;;;;;;;5056263;28;20195;-85
2021/06/09 12:01:38;;;;;;;5.53;5.13;;;;;;;;;;5055160;28;20414;-85
2021/06/09 12:04:20;;;;;;;5.32;4.93;;;;;;;;;;5055774;28;20228;-85
2021/06/09 12:06:52;;;;;;;4.72;4.43;;;;;;;;;;5055118;28;20206;-85
2021/06/09 12:09:20;;;;;;;5.63;5.22;;;;;;;;;;5056034;28;20229;-85
2021/06/09 12:11:49;;;;;;;5.82;5.40;;;;;;;;;;5055264;28;20210;-84
2021/06/09 12:14:23;;;;;;;6.40;5.60;;;;;;;;;;5054554;28;20214;-87
2021/06/09 12:16:53;;;;;;;6.15;5.75;;;;;;;;;;5054716;28;20261;-85
2021/06/09 12:19:29;;;;;;;7.05;6.07;;;;;;;;;;5055906;28;20576;-85
2021/06/09 12:22:10;;;;;;;5.80;5.40;;;;;;;;;;5054697;28;20217;-84
2021/06/09 12:24:38;;;;;;;4.78;4.43;;;;;;;;;;5055353;28;20222;-84
2021/06/09 12:27:08;;;;;;;5.80;5.40;;;;;;;;;;5055009;28;20186;-84
2021/06/09 12:29:38;;;;;;;5.50;5.10;;;;;;;;;;5055128;28;20206;-84
2021/06/09 12:32:18;;;;;;;5.38;4.97;;;;;;;;;;5054814;28;20202;-85
2021/06/09 12:34:57;;;;;;;5.50;5.10;;;;;;;;;;5054859;28;20282;-84
2021/06/09 12:37:29;;;;;;;4.93;4.53;;;;;;;;;;5054251;28;20235;-83
2021/06/09 12:40:05;;;;;;;5.30;4.80;;;;;;;;;;5053328;28;20190;-84
2021/06/09 12:42:32;;;;;;;4.95;4.55;;;;;;;;;;5054222;28;20221;-84
2021/06/09 12:44:59;;;;;;;6.38;5.88;;;;;;;;;;5053996;28;20730;-84
2021/06/09 12:47:30;;;;;;;5.75;5.25;;;;;;;;;;5054236;28;20186;-84
2021/06/09 12:50:17;;;;;;;6.03;5.63;;;;;;;;;;5054698;28;20186;-84
2021/06/09 12:52:47;;;;;;;5.03;4.63;;;;;;;;;;5054252;28;20236;-84
2021/06/09 12:55:19;;;;;;;4.88;4.45;;;;;;;;;;5055108;28;20691;-84
2021/06/09 12:57:47;;;;;;;4.38;4.07;;;;;;;;;;5054187;28;20244;-85
2021/06/09 13:00:34;;;;;;;4.82;4.30;;;;;;;;;;5054090;28;20182;-84
2021/06/09 13:03:24;;;;;;;4.63;4.32;;;;;;;;;;5053665;28;20209;-84
2021/06/09 13:05:55;;;;;;;5.68;5.05;;;;;;;;;;5053482;28;20186;-84
2021/06/09 13:08:25;;;;;;;5.93;5.53;;;;;;;;;;5053970;28;20748;-84
2021/06/09 13:11:07;;;;;;;5.25;4.93;;;;;;;;;;5053296;28;20206;-84
2021/06/09 13:13:36;;;;;;;4.53;4.13;;;;;;;;;;5053960;28;20562;-84
2021/06/09 13:16:04;;;;;;;4.70;4.20;;;;;;;;;;5053972;28;20209;-84
2021/06/09 13:18:44;;;;;;;4.97;4.68;;;;;;;;;;5054229;28;20198;-83
2021/06/09 13:21:28;;;;;;;4.72;4.38;;;;;;;;;;5053517;28;20223;-84
2021/06/09 13:24:15;;;;;;;5.65;5.18;;;;;;;;;;5054007;28;20698;-85
2021/06/09 13:26:43;;;;;;;5.22;4.82;;;;;;;;;;5053263;28;20276;-84
2021/06/09 13:29:15;;;;;;;7.03;6.43;;;;;;;;;;5052503;28;20208;-85
2021/06/09 13:31:43;;;;;;;5.97;5.50;;;;;;;;;;5052419;28;20182;-84
2021/06/09 13:34:11;;;;;;;6.00;5.53;;;;;;;;;;5052213;28;20253;-86
2021/06/09 13:36:39;;;;;;;7.03;6.32;;;;;;;;;;5053268;28;20198;-85
2021/06/09 13:39:10;;;;;;;5.63;5.22;;;;;;;;;;5053527;28;20202;-85
2021/06/09 13:41:38;;;;;;;6.20;5.70;;;;;;;;;;5053366;28;20178;-85
2021/06/09 13:44:06;;;;;;;6.68;5.88;;;;;;;;;;5053088;28;20230;-85
2021/06/09 13:46:48;;;;;;;6.47;5.90;;;;;;;;;;5053609;28;20213;-86
2021/06/09 13:49:27;;;;;;;6.20;5.70;;;;;;;;;;5053764;28;20202;-84
2021/06/09 13:51:55;;;;;;;6.20;5.75;;;;;;;;;;5053706;28;20193;-85
2021/06/09 13:54:33;;;;;;;6.65;6.15;;;;;;;;;;5054056;28;20221;-84
2021/06/09 13:57:19;;;;;;;6.38;5.88;;;;;;;;;;5052287;28;20236;-84
2021/06/09 13:59:50;;;;;;;6.78;5.53;;;;;;;;;;5051409;28;20205;-84
2021/06/09 14:02:27;;;;;;;6.35;5.90;;;;;;;;;;5051767;28;20503;-85
2021/06/09 14:05:04;;;;;;;6.53;5.93;;;;;;;;;;5051828;28;20224;-84
2021/06/09 14:07:40;;;;;;;6.50;6.05;;;;;;;;;;5052238;28;20190;-84
2021/06/09 14:10:09;;;;;;;6.47;5.88;;;;;;;;;;5052080;28;20196;-84
2021/06/09 14:12:38;;;;;;;6.80;6.03;;;;;;;;;;5052412;28;20189;-84
2021/06/09 14:15:14;;;;;;;6.25;5.85;;;;;;;;;;5052098;28;20225;-84
2021/06/09 14:17:42;;;;;;;6.63;6.18;;;;;;;;;;5052788;28;20205;-84
2021/06/09 14:20:14;;;;;;;7.00;6.47;;;;;;;;;;5052429;28;20258;-84
2021/06/09 14:22:43;;;;;;;6.47;5.97;;;;;;;;;;5053034;28;20301;-84
2021/06/09 14:25:16;;;;;;;7.05;6.38;;;;;;;;;;5053009;28;20229;-84
2021/06/09 14:27:57;;;;;;;6.00;5.45;;;;;;;;;;5053223;28;20648;-85
2021/06/09 14:30:28;;;;;;;7.70;7.07;;;;;;;;;;5052759;28;20205;-84
2021/06/09 14:33:14;;;;;;;6.72;6.13;;;;;;;;;;5052711;28;20182;-84
2021/06/09 14:35:55;;;;;;;6.63;6.13;;;;;;;;;;5052456;28;20211;-84
2021/06/09 14:38:25;;;;;;;6.63;6.13;;;;;;;;;;5053238;28;20258;-84
2021/06/09 14:40:58;;;;;;;5.30;4.90;;;;;;;;;;5052827;28;20182;-84
2021/06/09 14:43:30;;;;;;;6.43;5.93;;;;;;;;;;5052547;28;20703;-84
2021/06/09 14:45:59;;;;;;;7.63;7.03;;;;;;;;;;5052567;28;20186;-85
2021/06/09 14:51:16;;;;;;;6.13;5.63;;;;;;;;;;5052425;28;20200;-85
2021/06/09 14:53:44;;;;;;;6.32;5.82;;;;;;;;;;5052594;28;20225;-85
2021/06/09 14:56:13;;;;;;;5.78;5.28;;;;;;;;;;5053200;28;20201;-85
2021/06/09 14:58:42;;;;;;;5.93;5.40;;;;;;;;;;5034509;28;20233;-85